createdAt,value
2018-12-20T04:28:26.007Z,14.30
2018-12-20T04:30:59.334Z,15.40
2018-12-20T04:33:32.244Z,14.40
2018-12-20T04:36:04.424Z,15.47
2018-12-20T04:38:37.607Z,14.17
2018-12-20T04:41:11.747Z,14.87
2018-12-20T04:43:44.564Z,14.93
2018-12-20T04:46:15.511Z,14.23
2018-12-20T04:48:48.704Z,14.67
2018-12-20T04:51:21.332Z,14.27
2018-12-20T04:53:53.760Z,14.20
2018-12-20T04:56:26.738Z,14.70
2018-12-20T04:58:59.543Z,14.30
2018-12-20T05:01:32.410Z,14.23
2018-12-20T05:04:05.634Z,14.43
2018-12-20T05:06:38.624Z,14.30
2018-12-20T05:09:11.273Z,14.57
2018-12-20T05:11:44.304Z,13.93
2018-12-20T05:14:16.677Z,14.77
2018-12-20T05:16:49.722Z,13.80
2018-12-20T05:19:22.859Z,14.10
2018-12-20T05:21:54.961Z,14.03
2018-12-20T05:24:27.374Z,14.90
2018-12-20T05:27:00.333Z,14.87
2018-12-20T05:29:35.090Z,14.53
2018-12-20T05:32:08.003Z,14.73
2018-12-20T05:34:40.104Z,14.17
2018-12-20T05:37:12.332Z,14.67
2018-12-20T05:39:45.915Z,14.50
2018-12-20T05:42:18.769Z,15.47
2018-12-20T05:44:51.848Z,15.13
2018-12-20T05:47:24.220Z,14.23
2018-12-20T05:49:57.239Z,14.83
2018-12-20T05:52:29.835Z,15.57
2018-12-20T05:55:03.414Z,14.83
2018-12-20T05:57:35.660Z,14.77
2018-12-20T06:00:09.917Z,14.63
2018-12-20T06:02:43.735Z,14.53
2018-12-20T06:05:18.859Z,14.90
2018-12-20T06:07:51.956Z,13.73
2018-12-20T06:10:25.912Z,15.23
2018-12-20T06:12:59.676Z,13.87
2018-12-20T06:15:33.692Z,14.67
2018-12-20T06:18:08.510Z,13.93
2018-12-20T06:20:43.814Z,15.23
2018-12-20T06:23:16.966Z,14.90
2018-12-20T06:25:49.963Z,14.80
2018-12-20T06:28:22.966Z,14.47
2018-12-20T06:30:57.814Z,15.10
2018-12-20T06:33:34.860Z,14.50
2018-12-20T06:36:09.359Z,14.63
2018-12-20T06:38:42.648Z,14.53
2018-12-20T06:41:20.898Z,15.13
2018-12-20T06:43:56.768Z,15.10
2018-12-20T06:46:30.381Z,15.27
2018-12-20T06:49:04.531Z,15.10
2018-12-20T06:51:43.770Z,14.17
2018-12-20T06:54:19.119Z,15.53
2018-12-20T06:56:52.987Z,14.13
2018-12-20T06:59:28.037Z,15.07
2018-12-20T07:02:01.192Z,15.33
2018-12-20T07:04:31.580Z,17.43
2018-12-20T07:07:03.132Z,15.53
2018-12-20T07:09:36.725Z,20.83
2018-12-20T07:12:09.981Z,18.00
2018-12-20T07:14:45.767Z,15.70
2018-12-20T07:17:18.993Z,15.17
2018-12-20T07:19:52.180Z,15.10
2018-12-20T07:22:25.631Z,14.17
2018-12-20T07:24:58.499Z,15.90
2018-12-20T07:27:31.196Z,15.37
2018-12-20T07:30:03.384Z,14.73
2018-12-20T07:32:35.522Z,15.90
2018-12-20T07:35:10.117Z,14.10
2018-12-20T07:37:45.565Z,13.97
2018-12-20T07:40:17.787Z,15.00
2018-12-20T07:42:50.948Z,14.90
2018-12-20T07:45:25.512Z,15.13
2018-12-20T07:47:58.335Z,14.07
2018-12-20T07:50:31.201Z,12.37
2018-12-20T07:53:03.325Z,13.30
2018-12-20T07:55:35.383Z,13.70
2018-12-20T07:58:08.387Z,14.57
2018-12-20T08:00:40.580Z,14.13
2018-12-20T08:03:12.891Z,14.83
2018-12-20T08:05:45.284Z,15.77
2018-12-20T08:08:17.421Z,15.03
2018-12-20T08:10:49.519Z,14.97
2018-12-20T08:13:21.668Z,14.93
2018-12-20T08:15:56.108Z,15.13
2018-12-20T08:18:29.155Z,14.93
2018-12-20T08:21:02.096Z,14.37
2018-12-20T08:23:34.396Z,15.87
2018-12-20T08:26:06.673Z,17.23
2018-12-20T08:28:38.864Z,18.70
2018-12-20T08:31:10.940Z,18.03
2018-12-20T08:33:45.524Z,16.70
2018-12-20T08:36:18.213Z,14.43
2018-12-20T08:38:50.425Z,15.03
2018-12-20T08:41:23.577Z,14.77
2018-12-20T08:43:55.783Z,16.10
2018-12-20T08:46:28.206Z,15.87
2018-12-20T08:49:00.360Z,15.10
2018-12-20T08:51:33.397Z,14.77
2018-12-20T08:54:08.892Z,15.27
2018-12-20T08:56:41.464Z,16.13
2018-12-20T08:59:14.529Z,15.67
2018-12-20T09:01:46.609Z,15.50
2018-12-20T09:04:19.687Z,15.60
2018-12-20T09:06:52.680Z,14.00
2018-12-20T09:09:25.476Z,14.37
2018-12-20T09:11:58.596Z,13.73
2018-12-20T09:14:30.799Z,13.83
2018-12-20T09:17:03.063Z,13.03
2018-12-20T09:19:35.927Z,12.73
2018-12-20T09:22:08.036Z,11.40
2018-12-20T09:24:42.687Z,9.93
2018-12-20T09:27:15.295Z,10.30
2018-12-20T09:29:48.243Z,10.87
2018-12-20T09:32:20.934Z,10.80
2018-12-20T09:34:53.496Z,10.33
2018-12-20T09:37:26.709Z,9.90
2018-12-20T09:39:57.515Z,10.23
2018-12-20T09:42:29.931Z,10.77
2018-12-20T09:45:01.397Z,10.53
2018-12-20T09:47:39.620Z,10.80
2018-12-20T09:50:12.635Z,11.53
2018-12-20T09:52:45.524Z,11.70
2018-12-20T09:55:18.714Z,11.73
2018-12-20T09:57:51.020Z,11.63
2018-12-20T10:00:23.996Z,11.80
2018-12-20T10:02:54.160Z,12.77
2018-12-20T10:05:26.263Z,12.50
2018-12-20T10:07:58.469Z,12.77
2018-12-20T10:10:30.776Z,12.93
2018-12-20T10:13:02.966Z,13.00
2018-12-20T10:15:37.138Z,15.73
2018-12-20T10:18:11.704Z,13.50
2018-12-20T10:20:44.443Z,12.87
2018-12-20T10:23:16.937Z,13.30
2018-12-20T10:25:49.276Z,13.40
2018-12-20T10:28:21.637Z,11.97
2018-12-20T10:30:54.906Z,12.50
2018-12-20T10:33:27.227Z,12.37
2018-12-20T10:36:00.156Z,12.30
2018-12-20T10:38:34.944Z,11.07
2018-12-20T10:41:08.013Z,10.43
2018-12-20T10:43:38.949Z,10.00
2018-12-20T10:46:11.957Z,9.10
2018-12-20T10:48:46.456Z,9.17
2018-12-20T10:51:17.209Z,9.13
2018-12-20T10:53:49.523Z,8.73
2018-12-20T10:56:24.806Z,9.20
2018-12-20T10:58:55.778Z,8.33
2018-12-20T11:01:36.275Z,8.87
2018-12-20T11:04:13.815Z,8.50
2018-12-20T11:06:49.651Z,8.40
2018-12-20T11:09:27.731Z,8.53
2018-12-20T11:12:03.799Z,8.50
2018-12-20T11:14:36.350Z,8.13
2018-12-20T11:17:09.036Z,7.60
2018-12-20T11:19:41.425Z,7.30
2018-12-20T11:22:12.122Z,7.13
2018-12-20T11:24:44.945Z,7.50
2018-12-20T11:27:15.125Z,5.70
2018-12-20T11:29:47.302Z,5.80
2018-12-20T11:32:19.438Z,3.50
2018-12-20T11:34:53.975Z,3.47
2018-12-20T11:37:26.621Z,3.77
2018-12-20T11:42:29.764Z,2.90
2018-12-20T11:45:02.040Z,3.00
2018-12-20T11:47:32.195Z,1.37
2018-12-20T11:50:04.927Z,1.13
2018-12-20T11:52:42.339Z,1.10
2018-12-20T11:55:10.339Z,1.40
2018-12-20T11:57:40.544Z,1.30
2018-12-20T12:00:11.649Z,1.20
2018-12-20T12:02:43.852Z,0.97
2018-12-20T12:05:16.836Z,1.20
2018-12-20T12:07:47.115Z,1.20
2018-12-20T12:10:17.364Z,1.40
2018-12-20T12:12:49.539Z,1.40
2018-12-20T12:15:21.706Z,1.27
2018-12-20T12:17:56.433Z,1.40
2018-12-20T12:20:29.020Z,3.80
2018-12-20T12:23:01.213Z,3.13
2018-12-20T12:25:35.842Z,1.30
2018-12-20T12:28:08.556Z,1.23
2018-12-20T12:30:40.673Z,1.40
2018-12-20T12:33:13.024Z,1.60
2018-12-20T12:35:47.701Z,1.30
2018-12-20T12:38:22.584Z,3.23
2018-12-20T12:40:57.840Z,8.73
2018-12-20T12:43:33.143Z,3.70
2018-12-20T12:46:13.949Z,1.30
2018-12-20T12:48:48.955Z,5.43
2018-12-20T12:51:21.700Z,2.70
2018-12-20T12:53:56.195Z,3.80
2018-12-20T12:56:28.567Z,9.07
2018-12-20T12:58:58.872Z,11.27
2018-12-20T13:01:30.994Z,3.60
2018-12-20T13:04:03.121Z,1.20
2018-12-20T13:06:37.380Z,1.40
2018-12-20T13:09:10.223Z,1.50
2018-12-20T13:11:41.055Z,1.37
2018-12-20T13:14:14.045Z,1.40
2018-12-20T13:16:48.712Z,1.40
2018-12-20T13:19:21.460Z,1.40
2018-12-20T13:21:54.520Z,1.37
2018-12-20T13:24:29.228Z,1.03
2018-12-20T13:27:01.952Z,1.30
2018-12-20T13:29:34.908Z,1.50
2018-12-20T13:32:08.057Z,1.60
2018-12-20T13:34:38.918Z,1.23
2018-12-20T13:37:15.811Z,1.80
2018-12-20T13:39:43.536Z,2.00
2018-12-20T13:42:18.751Z,2.13
2018-12-20T13:44:51.556Z,1.80
2018-12-20T13:47:26.806Z,1.70
2018-12-20T13:49:59.870Z,2.13
2018-12-20T13:52:33.524Z,1.83
2018-12-20T13:55:06.031Z,1.50
2018-12-20T13:57:39.064Z,2.00
2018-12-20T14:00:15.159Z,2.50
2018-12-20T14:02:47.575Z,4.93
2018-12-20T14:05:18.838Z,4.87
2018-12-20T14:07:58.849Z,3.40
2018-12-20T14:10:26.143Z,2.50
2018-12-20T14:12:58.340Z,2.73
2018-12-20T14:15:31.242Z,3.90
2018-12-20T14:18:04.128Z,4.80
2018-12-20T14:20:37.183Z,3.43
2018-12-20T14:23:09.358Z,4.67
2018-12-20T14:25:43.416Z,4.30
2018-12-20T14:28:15.668Z,3.50
2018-12-20T14:30:48.009Z,3.50
2018-12-20T14:33:20.154Z,2.97
2018-12-20T14:35:53.335Z,2.60
2018-12-20T14:38:26.160Z,2.10
2018-12-20T14:40:58.659Z,2.33
2018-12-20T14:43:33.339Z,2.20
2018-12-20T14:46:06.117Z,2.40
2018-12-20T14:48:39.566Z,2.70
2018-12-20T14:51:12.760Z,4.87
2018-12-20T14:53:45.578Z,9.47
2018-12-20T14:56:17.759Z,13.23
2018-12-20T14:58:50.013Z,8.53
2018-12-20T15:01:22.300Z,12.73
2018-12-20T15:03:55.362Z,9.07
2018-12-20T15:06:27.817Z,6.53
2018-12-20T15:09:00.667Z,18.67
2018-12-20T15:11:33.209Z,13.43
2018-12-20T15:14:06.277Z,5.77
2018-12-20T15:16:39.215Z,4.30
2018-12-20T15:19:12.086Z,6.30
2018-12-20T15:21:44.674Z,3.00
2018-12-20T15:24:17.696Z,3.47
2018-12-20T15:26:49.992Z,2.87
2018-12-20T15:29:22.246Z,2.53
2018-12-20T15:31:55.306Z,2.00
2018-12-20T15:34:28.246Z,1.80
2018-12-20T15:37:00.700Z,2.47
2018-12-20T15:39:33.763Z,2.20
2018-12-20T15:42:06.088Z,2.50
2018-12-20T15:44:44.227Z,2.37
2018-12-20T15:47:19.474Z,2.20
2018-12-20T15:49:50.082Z,2.60
2018-12-20T15:52:23.072Z,2.90
2018-12-20T15:54:55.894Z,2.30
2018-12-20T15:57:27.000Z,2.20
2018-12-20T15:59:59.906Z,1.90
2018-12-20T16:02:32.056Z,2.40
2018-12-20T16:05:04.584Z,2.23
2018-12-20T16:07:37.277Z,2.43
2018-12-20T16:10:10.269Z,3.40
2018-12-20T16:12:42.800Z,5.40
2018-12-20T16:15:15.370Z,5.73
2018-12-20T16:17:48.357Z,4.80
2018-12-20T16:20:21.398Z,4.40
2018-12-20T16:22:53.819Z,5.53
2018-12-20T16:25:26.999Z,4.40
2018-12-20T16:28:00.309Z,3.40
2018-12-20T16:30:35.628Z,3.50
2018-12-20T16:33:08.701Z,3.90
2018-12-20T16:35:43.789Z,5.50
2018-12-20T16:38:16.554Z,7.80
2018-12-20T16:40:49.398Z,10.33
2018-12-20T16:43:22.664Z,7.37
2018-12-20T16:45:55.938Z,5.30
2018-12-20T16:48:29.071Z,4.30
2018-12-20T16:51:03.240Z,4.13
2018-12-20T16:53:36.219Z,3.90
2018-12-20T16:56:07.833Z,4.10
2018-12-20T16:58:41.560Z,5.43
2018-12-20T17:01:14.958Z,5.20
2018-12-20T17:03:47.609Z,7.20
2018-12-20T17:06:20.742Z,5.60
2018-12-20T17:08:54.522Z,7.43
2018-12-20T17:11:26.863Z,6.10
2018-12-20T17:13:59.294Z,4.87
2018-12-20T17:16:33.066Z,3.80
2018-12-20T17:19:06.161Z,4.63
2018-12-20T17:21:40.520Z,4.70
2018-12-20T17:24:14.297Z,4.10
2018-12-20T17:26:47.826Z,4.03
2018-12-20T17:29:19.192Z,3.40
2018-12-20T17:31:52.679Z,3.80
2018-12-20T17:34:25.729Z,4.20
2018-12-20T17:37:00.763Z,4.50
2018-12-20T17:39:34.296Z,4.60
2018-12-20T17:42:08.744Z,4.87
2018-12-20T17:44:42.214Z,5.70
2018-12-20T17:47:16.098Z,6.23
2018-12-20T17:49:50.620Z,6.53
2018-12-20T17:52:23.688Z,6.93
2018-12-20T17:54:57.549Z,6.30
2018-12-20T17:57:27.912Z,5.80
2018-12-20T18:00:01.078Z,5.57
2018-12-20T18:02:34.013Z,5.47
2018-12-20T18:05:07.097Z,5.17
2018-12-20T18:07:42.761Z,5.43
2018-12-20T18:10:15.347Z,7.43
2018-12-20T18:12:48.257Z,8.13
2018-12-20T18:15:20.431Z,8.30
2018-12-20T18:17:52.651Z,8.27
2018-12-20T18:20:23.709Z,8.20
2018-12-20T18:22:55.920Z,8.40
2018-12-20T18:25:28.271Z,8.40
2018-12-20T18:28:02.873Z,7.87
2018-12-20T18:30:35.816Z,8.27
2018-12-20T18:33:06.075Z,9.10
2018-12-20T18:35:41.522Z,7.87
2018-12-20T18:38:14.415Z,9.10
2018-12-20T18:40:47.162Z,8.63
2018-12-20T18:43:20.220Z,8.53
2018-12-20T18:45:53.520Z,11.60
2018-12-20T18:48:40.739Z,20.27
2018-12-20T18:51:10.094Z,23.57
2018-12-20T18:53:39.245Z,23.10
2018-12-20T18:56:08.447Z,20.97
2018-12-20T18:58:37.697Z,14.27
2018-12-20T19:01:06.868Z,34.90
2018-12-20T19:03:35.976Z,27.70
2018-12-20T19:06:05.144Z,27.30
2018-12-20T19:08:34.512Z,33.67
2018-12-20T19:11:03.655Z,34.77
2018-12-20T19:13:33.292Z,36.53
2018-12-20T19:16:02.602Z,25.10
2018-12-20T19:18:31.898Z,21.70
2018-12-20T19:21:01.211Z,15.43
2018-12-20T19:23:31.230Z,13.77
2018-12-20T19:26:04.680Z,11.83
2018-12-20T19:28:37.505Z,14.63
2018-12-20T19:31:12.895Z,17.40
2018-12-20T19:33:46.976Z,14.70
2018-12-20T19:36:19.900Z,12.33
2018-12-20T19:38:50.946Z,13.30
2018-12-20T19:41:24.025Z,11.83
2018-12-20T19:43:58.125Z,12.40
2018-12-20T19:46:29.741Z,14.50
2018-12-20T19:49:06.288Z,14.20
2018-12-20T19:51:39.666Z,14.57
2018-12-20T19:54:15.010Z,14.80
2018-12-20T19:56:47.587Z,13.87
2018-12-20T19:59:20.867Z,12.23
2018-12-20T20:02:04.769Z,10.87
2018-12-20T20:04:38.311Z,11.13
2018-12-20T20:07:14.167Z,10.73
2018-12-20T20:09:45.495Z,12.90
2018-12-20T20:12:18.480Z,14.77
2018-12-20T20:14:51.270Z,12.53
2018-12-20T20:17:26.123Z,8.87
2018-12-20T20:20:03.907Z,9.27
2018-12-20T20:22:39.120Z,8.63
2018-12-20T20:25:11.952Z,15.60
2018-12-20T20:27:44.988Z,12.67
2018-12-20T20:30:20.317Z,9.90
2018-12-20T20:32:53.124Z,8.47
2018-12-20T20:35:32.875Z,7.83
2018-12-20T20:38:06.284Z,6.73
2018-12-20T20:40:41.467Z,7.67
2018-12-20T20:43:21.246Z,7.43
2018-12-20T20:46:00.495Z,6.93
2018-12-20T20:48:35.194Z,6.87
2018-12-20T20:51:09.769Z,6.30
2018-12-20T20:53:45.639Z,6.00
2018-12-20T20:56:18.028Z,6.03
2018-12-20T20:58:53.212Z,6.70
2018-12-20T21:01:31.533Z,6.27
2018-12-20T21:04:06.580Z,6.53
2018-12-20T21:06:46.929Z,6.27
2018-12-20T21:09:16.667Z,6.70
2018-12-20T21:11:57.929Z,6.90
2018-12-20T21:14:30.028Z,6.90
2018-12-20T21:17:02.096Z,6.80
2018-12-20T21:19:33.961Z,6.73
2018-12-20T21:25:01.992Z,6.33
2018-12-20T21:27:31.438Z,6.17
2018-12-20T21:30:11.163Z,6.43
2018-12-20T21:32:40.861Z,5.30
2018-12-20T21:35:12.590Z,5.63
2018-12-20T21:37:42.699Z,5.30
2018-12-20T21:40:13.577Z,6.10
2018-12-20T21:42:43.608Z,5.57
2018-12-20T21:45:13.906Z,4.93
2018-12-20T21:47:43.609Z,5.40
2018-12-20T21:50:13.469Z,5.93
2018-12-20T21:52:43.116Z,5.83
2018-12-20T21:55:12.636Z,5.73
